Time;durP1;ratioP1;P1;durP2;ratioP2;P2;SDS_P1;SDS_P2;PMS_P1;PMS_P2;Temp;Humidity;BMP_temperature;BMP_pressure;BME280_temperature;BME280_humidity;BME280_pressure;Samples;Min_cycle;Max_cycle;Signal;HPM_P1;HPM_P2
2023/03/10 00:01:11;;;;;;;3.42;1.33;;;;;;;15.13;51.95;94598.81;5040141;28;20095;-46
2023/03/10 00:03:40;;;;;;;3.60;1.70;;;;;;;15.23;52.16;94598.31;5040809;28;20106;-50
2023/03/10 00:06:10;;;;;;;6.10;1.67;;;;;;;15.32;51.36;94587.19;5040859;28;20514;-52
2023/03/10 00:08:38;;;;;;;3.42;1.30;;;;;;;15.48;50.95;94591.09;5045262;28;20536;-48
2023/03/10 00:11:07;;;;;;;5.38;1.58;;;;;;;15.56;50.05;94576.72;5042769;28;20075;-55
2023/03/10 00:13:35;;;;;;;2.33;1.15;;;;;;;15.47;50.71;94570.06;5047233;28;20068;-52
2023/03/10 00:16:04;;;;;;;2.42;1.20;;;;;;;15.70;49.40;94561.47;5041694;28;20076;-48
2023/03/10 00:18:33;;;;;;;4.75;1.48;;;;;;;15.55;49.66;94567.13;5041971;28;20124;-50
2023/03/10 00:21:01;;;;;;;4.05;1.30;;;;;;;15.53;49.90;94556.72;5044918;28;20106;-51
2023/03/10 00:23:31;;;;;;;5.97;1.42;;;;;;;15.59;49.21;94555.03;5044399;28;20071;-47
2023/03/10 00:26:00;;;;;;;3.43;1.17;;;;;;;15.31;49.38;94553.72;5039617;28;20513;-47
2023/03/10 00:28:28;;;;;;;3.45;1.42;;;;;;;15.31;50.06;94550.22;5046272;28;20515;-54
2023/03/10 00:30:59;;;;;;;2.63;1.10;;;;;;;15.19;49.67;94550.16;5043740;28;20076;-53
2023/03/10 00:33:27;;;;;;;6.05;1.55;;;;;;;15.26;50.10;94544.78;5043984;28;20450;-51
2023/03/10 00:36:04;;;;;;;3.85;1.20;;;;;;;15.03;50.69;94540.09;5045387;28;20067;-52
2023/03/10 00:38:34;;;;;;;4.15;1.40;;;;;;;15.19;49.78;94534.22;5043340;28;20083;-54
2023/03/10 00:41:04;;;;;;;3.63;1.42;;;;;;;15.25;49.85;94536.00;5040933;28;20087;-48
2023/03/10 00:43:33;;;;;;;4.32;1.20;;;;;;;15.36;48.79;94529.94;5043318;28;20076;-49
2023/03/10 00:46:01;;;;;;;4.72;1.17;;;;;;;15.27;49.01;94522.47;5045468;28;20091;-54
2023/03/10 00:48:30;;;;;;;3.70;1.20;;;;;;;15.40;48.23;94517.84;5042816;28;20057;-52
2023/03/10 00:50:59;;;;;;;3.45;1.15;;;;;;;15.38;48.19;94514.63;5042410;28;20469;-49
2023/03/10 00:53:28;;;;;;;2.05;0.93;;;;;;;15.43;48.00;94509.44;5044023;28;20497;-48
2023/03/10 00:56:03;;;;;;;2.92;1.30;;;;;;;15.35;47.77;94506.28;5042747;28;20080;-50
2023/03/10 00:58:33;;;;;;;6.75;1.27;;;;;;;15.52;47.59;94509.94;5047240;28;20084;-55
2023/03/10 01:01:02;;;;;;;3.67;1.20;;;;;;;15.48;47.79;94502.63;5046634;28;20470;-51
2023/03/10 01:03:32;;;;;;;3.85;1.05;;;;;;;14.95;48.85;94512.81;5048799;28;20080;-52
2023/03/10 01:06:00;;;;;;;3.03;1.25;;;;;;;15.40;47.81;94501.91;5046734;28;20099;-57
2023/03/10 01:08:29;;;;;;;1.50;0.90;;;;;;;15.46;47.29;94491.44;5048821;28;20072;-49
2023/03/10 01:10:57;;;;;;;2.30;1.08;;;;;;;15.19;48.12;94489.88;5045931;28;20088;-51
2023/03/10 01:13:27;;;;;;;3.70;1.20;;;;;;;15.41;47.03;94481.47;5045549;28;20799;-46
2023/03/10 01:15:55;;;;;;;2.60;1.00;;;;;;;15.46;46.59;94470.19;5045980;28;20099;-55
2023/03/10 01:18:23;;;;;;;3.38;1.00;;;;;;;15.47;46.22;94466.50;5045008;28;20084;-50
2023/03/10 01:20:52;;;;;;;2.45;1.25;;;;;;;15.45;46.26;94458.75;5042155;28;20085;-50
2023/03/10 01:23:22;;;;;;;3.17;1.20;;;;;;;15.43;46.44;94458.16;5047400;28;20088;-51
2023/03/10 01:25:51;;;;;;;3.10;1.13;;;;;;;15.40;46.50;94450.63;5049467;28;20096;-50
2023/03/10 01:28:19;;;;;;;2.83;1.10;;;;;;;15.36;46.32;94447.63;5047864;28;20085;-46
2023/03/10 01:30:49;;;;;;;1.83;1.02;;;;;;;15.39;45.93;94433.91;5045146;28;20076;-52
2023/03/10 01:33:18;;;;;;;1.98;1.05;;;;;;;15.24;46.44;94436.13;5044915;28;20076;-54
2023/03/10 01:35:46;;;;;;;5.75;1.65;;;;;;;15.19;46.71;94426.19;5047951;28;20076;-50
2023/03/10 01:38:15;;;;;;;5.35;1.17;;;;;;;15.20;46.40;94424.31;5047813;28;20921;-46
2023/03/10 01:40:48;;;;;;;3.13;1.10;;;;;;;15.20;46.36;94424.31;5044434;28;20075;-54
2023/03/10 01:43:30;;;;;;;2.25;0.90;;;;;;;15.17;46.40;94422.09;5047436;28;20088;-47
2023/03/10 01:46:51;;;;;;;4.22;1.10;;;;;;;14.93;47.68;94419.34;5043313;28;20081;-49
2023/03/10 01:49:26;;;;;;;3.70;1.08;;;;;;;15.01;46.59;94412.94;5038644;28;20311;-50
2023/03/10 01:51:58;;;;;;;2.20;0.90;;;;;;;15.02;46.58;94397.81;5046135;28;20158;-49
2023/03/10 01:54:31;;;;;;;5.50;1.20;;;;;;;15.08;46.35;94394.28;5046175;28;20072;-52
2023/03/10 01:57:00;;;;;;;3.58;0.88;;;;;;;15.13;45.94;94392.53;5045062;28;20068;-50
2023/03/10 01:59:28;;;;;;;4.75;1.05;;;;;;;15.13;46.08;94391.75;5047621;28;20083;-51
2023/03/10 02:01:58;;;;;;;5.40;1.08;;;;;;;14.59;47.03;94388.06;5044949;28;20089;-52
2023/03/10 02:04:34;;;;;;;1.47;0.90;;;;;;;14.75;47.30;94384.03;5047096;28;20522;-52
2023/03/10 02:07:04;;;;;;;2.28;1.00;;;;;;;15.05;46.86;94379.59;5045686;28;20087;-49
2023/03/10 02:09:34;;;;;;;2.08;1.00;;;;;;;15.12;46.19;94367.03;5047202;28;20544;-49
2023/03/10 02:12:03;;;;;;;2.42;0.95;;;;;;;15.19;45.93;94366.97;5045085;28;20072;-50
2023/03/10 02:14:34;;;;;;;1.92;0.80;;;;;;;15.11;45.84;94356.66;5045278;28;20103;-51
2023/03/10 02:17:04;;;;;;;4.20;1.10;;;;;;;15.12;45.65;94350.31;5044379;28;20491;-48
2023/03/10 02:19:47;;;;;;;3.88;0.90;;;;;;;15.21;45.36;94346.31;5048260;28;20446;-56
2023/03/10 02:22:16;;;;;;;2.03;0.75;;;;;;;15.22;45.21;94336.50;5044289;28;20069;-49
2023/03/10 02:24:47;;;;;;;2.15;0.82;;;;;;;15.20;45.05;94336.72;5046669;28;20076;-52
2023/03/10 02:27:19;;;;;;;5.25;1.08;;;;;;;15.18;45.13;94329.00;5043271;28;20115;-55
2023/03/10 02:29:51;;;;;;;2.90;1.10;;;;;;;15.27;45.15;94332.13;5044446;28;20065;-55
2023/03/10 02:32:28;;;;;;;2.30;0.70;;;;;;;15.32;44.77;94326.16;5044758;28;20081;-53
2023/03/10 02:34:56;;;;;;;4.40;0.90;;;;;;;15.25;44.76;94323.59;5048032;28;20084;-53
2023/03/10 02:37:26;;;;;;;3.90;1.00;;;;;;;14.98;45.11;94317.81;5044496;28;20075;-52
2023/03/10 02:39:55;;;;;;;1.42;0.90;;;;;;;14.68;45.48;94315.94;5044753;28;20095;-49
2023/03/10 02:42:27;;;;;;;2.50;0.93;;;;;;;15.18;45.13;94307.75;5046464;28;20080;-49
2023/03/10 02:44:56;;;;;;;3.13;0.95;;;;;;;15.11;44.97;94309.69;5045425;28;20597;-52
2023/03/10 02:47:24;;;;;;;1.90;0.70;;;;;;;14.99;45.54;94308.00;5044821;28;20091;-53
2023/03/10 02:49:52;;;;;;;4.05;0.80;;;;;;;15.19;45.03;94304.06;5046961;28;20075;-47
2023/03/10 02:52:33;;;;;;;2.10;1.00;;;;;;;15.19;45.25;94300.59;5044478;28;20080;-54
2023/03/10 02:55:02;;;;;;;2.00;0.80;;;;;;;15.24;44.99;94298.06;5044458;28;20068;-52
2023/03/10 02:57:32;;;;;;;2.20;0.75;;;;;;;15.43;44.90;94289.00;5046970;28;20068;-51
2023/03/10 03:00:00;;;;;;;1.93;1.13;;;;;;;15.50;44.63;94286.22;5046107;28;20080;-51
2023/03/10 03:02:29;;;;;;;2.65;0.85;;;;;;;15.17;45.51;94284.91;5044998;28;20507;-54
2023/03/10 03:04:58;;;;;;;2.13;0.80;;;;;;;15.06;45.68;94280.34;5042413;28;20088;-54
2023/03/10 03:07:27;;;;;;;3.30;0.70;;;;;;;14.96;46.02;94278.22;5049676;28;20140;-50
2023/03/10 03:09:56;;;;;;;2.60;1.00;;;;;;;15.09;45.55;94281.75;5046913;28;20084;-53
2023/03/10 03:12:24;;;;;;;1.48;0.95;;;;;;;14.27;46.53;94282.13;5043547;28;20072;-55
2023/03/10 03:14:54;;;;;;;1.15;0.68;;;;;;;15.09;45.28;94276.44;5044118;28;20074;-53
2023/03/10 03:17:22;;;;;;;2.03;0.80;;;;;;;15.22;45.30;94278.09;5040253;28;21811;-54
2023/03/10 03:19:51;;;;;;;2.25;0.80;;;;;;;15.31;45.18;94277.56;5042874;28;20076;-50
2023/03/10 03:22:19;;;;;;;1.88;0.90;;;;;;;15.65;44.24;94265.34;5043668;28;20089;-52
2023/03/10 03:24:47;;;;;;;3.85;0.80;;;;;;;14.95;45.41;94267.84;5037797;28;20092;-52
2023/03/10 03:27:16;;;;;;;2.25;0.88;;;;;;;15.62;44.72;94263.16;5041228;28;20079;-51
2023/03/10 03:29:44;;;;;;;2.20;0.65;;;;;;;15.33;45.69;94270.16;5043329;28;20091;-49
2023/03/10 03:32:14;;;;;;;1.20;0.70;;;;;;;14.98;46.77;94272.72;5037767;28;20471;-51
2023/03/10 03:34:42;;;;;;;1.45;0.75;;;;;;;14.65;46.77;94276.59;5044312;28;20148;-50
2023/03/10 03:37:10;;;;;;;1.15;0.60;;;;;;;15.34;45.72;94273.59;5044241;28;20087;-50
2023/03/10 03:39:39;;;;;;;2.78;0.80;;;;;;;15.29;46.05;94278.81;5043566;28;20072;-52
2023/03/10 03:42:08;;;;;;;1.00;0.60;;;;;;;15.55;45.76;94269.59;5043573;28;20077;-50
2023/03/10 03:44:36;;;;;;;2.33;0.57;;;;;;;14.31;48.00;94295.75;5044011;28;20072;-50
2023/03/10 03:47:07;;;;;;;2.00;0.70;;;;;;;14.27;49.78;94305.16;5047984;28;20060;-50
2023/03/10 03:49:37;;;;;;;2.30;0.60;;;;;;;14.21;50.34;94301.53;5042308;28;20072;-53
2023/03/10 03:52:06;;;;;;;2.08;0.70;;;;;;;15.31;47.35;94282.03;5045138;28;20084;-51
2023/03/10 03:54:34;;;;;;;13.93;5.82;;;;;;;15.35;46.52;94288.53;5044786;28;20068;-52
2023/03/10 03:57:03;;;;;;;1.35;0.80;;;;;;;13.62;52.20;94337.34;5041810;28;20533;-52
2023/03/10 03:59:31;;;;;;;2.25;0.75;;;;;;;14.09;49.99;94313.91;5043653;28;20064;-48
2023/03/10 04:02:00;;;;;;;1.95;0.63;;;;;;;14.91;48.50;94304.66;5044379;28;20064;-52
2023/03/10 04:04:28;;;;;;;2.05;0.80;;;;;;;14.83;47.87;94315.56;5044992;28;20076;-53
2023/03/10 04:06:58;;;;;;;2.70;0.70;;;;;;;14.20;49.82;94335.19;5045486;28;20084;-51
2023/03/10 04:09:26;;;;;;;2.20;0.73;;;;;;;14.78;48.51;94334.00;5048291;28;20076;-49
2023/03/10 04:11:55;;;;;;;1.70;0.60;;;;;;;14.53;48.06;94326.13;5038297;28;20916;-50
2023/03/10 04:14:23;;;;;;;1.05;0.70;;;;;;;14.64;47.99;94337.84;5044800;28;20552;-51
2023/03/10 04:16:51;;;;;;;2.38;0.88;;;;;;;14.93;47.69;94330.94;5043985;28;20087;-50
2023/03/10 04:19:19;;;;;;;1.77;0.80;;;;;;;14.25;47.99;94353.94;5042063;28;20105;-50
2023/03/10 04:21:48;;;;;;;4.82;0.93;;;;;;;15.05;47.01;94338.97;5043000;28;20505;-57
2023/03/10 04:24:18;;;;;;;1.65;0.77;;;;;;;14.26;48.20;94354.72;5039156;28;20072;-52
2023/03/10 04:26:46;;;;;;;2.77;0.70;;;;;;;14.37;48.16;94343.38;5044712;28;20092;-49
2023/03/10 04:29:14;;;;;;;1.73;0.70;;;;;;;13.93;49.36;94365.63;5041727;28;20506;-50
2023/03/10 04:31:43;;;;;;;0.90;0.63;;;;;;;13.74;51.55;94362.94;5041902;28;20080;-55
2023/03/10 04:34:26;;;;;;;1.80;0.70;;;;;;;13.75;50.48;94366.38;5046551;28;20091;-51
2023/03/10 04:36:54;;;;;;;2.17;0.90;;;;;;;14.16;49.27;94359.72;5047185;28;20802;-53
2023/03/10 04:39:24;;;;;;;1.20;0.80;;;;;;;14.61;48.69;94348.88;5044031;28;20076;-52
2023/03/10 04:41:52;;;;;;;5.82;1.23;;;;;;;14.82;47.30;94340.47;5048245;28;20081;-55
2023/03/10 04:44:20;;;;;;;2.00;0.80;;;;;;;15.03;46.93;94341.03;5050262;28;20530;-54
2023/03/10 04:46:58;;;;;;;2.80;1.00;;;;;;;14.92;47.20;94337.28;5046008;28;20490;-49
2023/03/10 04:49:27;;;;;;;5.53;0.93;;;;;;;14.95;47.02;94335.00;5042074;28;20084;-50
2023/03/10 04:51:56;;;;;;;4.40;0.93;;;;;;;14.91;46.93;94341.00;5045272;28;20088;-52
2023/03/10 04:54:25;;;;;;;1.45;0.77;;;;;;;14.35;47.88;94345.47;5043942;28;20441;-54
2023/03/10 04:56:54;;;;;;;1.93;0.93;;;;;;;15.04;47.42;94345.31;5044053;28;20128;-49
2023/03/10 04:59:23;;;;;;;1.75;0.90;;;;;;;14.61;47.90;94343.59;5047942;28;20526;-53
2023/03/10 05:01:52;;;;;;;2.25;0.70;;;;;;;15.00;47.73;94341.47;5042159;28;20084;-53
2023/03/10 05:04:20;;;;;;;2.42;0.85;;;;;;;14.20;49.99;94345.00;5038338;28;20067;-46
2023/03/10 05:06:50;;;;;;;2.45;0.90;;;;;;;15.07;49.55;94335.06;5049572;28;20366;-49
2023/03/10 05:09:19;;;;;;;2.53;0.73;;;;;;;14.99;49.49;94343.31;5055621;28;20075;-47
2023/03/10 05:11:48;;;;;;;2.20;0.90;;;;;;;15.23;50.20;94343.44;5051072;28;20085;-45
2023/03/10 05:14:17;;;;;;;2.35;0.70;;;;;;;14.81;51.91;94338.06;5049913;28;20079;-50
2023/03/10 05:16:47;;;;;;;2.38;0.60;;;;;;;14.90;55.15;94340.19;5050780;28;20472;-46
2023/03/10 05:19:16;;;;;;;0.98;0.60;;;;;;;15.10;55.23;94333.78;5050616;28;20057;-48
2023/03/10 05:21:44;;;;;;;1.80;0.70;;;;;;;15.48;53.93;94338.75;5050896;28;20489;-50
2023/03/10 05:24:12;;;;;;;0.90;0.50;;;;;;;15.60;54.06;94338.81;5051071;28;20139;-48
2023/03/10 05:26:41;;;;;;;2.97;0.95;;;;;;;15.14;55.47;94349.06;5050656;28;20080;-46
2023/03/10 05:29:11;;;;;;;2.05;0.55;;;;;;;15.23;55.89;94346.88;5050664;28;20636;-47
2023/03/10 05:31:39;;;;;;;1.20;0.90;;;;;;;15.70;53.64;94347.06;5047798;28;20115;-49
2023/03/10 05:34:08;;;;;;;2.72;0.88;;;;;;;15.70;54.26;94344.41;5050762;28;20076;-48
2023/03/10 05:36:36;;;;;;;1.73;0.68;;;;;;;15.32;54.79;94352.69;5051149;28;20072;-51
2023/03/10 05:39:05;;;;;;;3.65;0.70;;;;;;;15.71;53.54;94343.34;5047483;28;20072;-48
2023/03/10 05:41:34;;;;;;;3.72;1.00;;;;;;;15.96;53.48;94342.34;5051327;28;20080;-49
2023/03/10 05:44:02;;;;;;;2.55;0.73;;;;;;;16.13;53.60;94344.09;5046978;28;20076;-51
2023/03/10 05:46:31;;;;;;;1.83;0.50;;;;;;;15.76;55.11;94343.50;5050254;28;20088;-48
2023/03/10 05:49:00;;;;;;;3.53;0.90;;;;;;;16.26;54.26;94340.41;5050389;28;20081;-55
2023/03/10 05:51:28;;;;;;;3.75;0.90;;;;;;;15.96;54.15;94345.00;5051060;28;20498;-49
2023/03/10 05:53:56;;;;;;;2.55;0.70;;;;;;;15.10;57.67;94342.56;5050297;28;20076;-47
2023/03/10 05:56:25;;;;;;;5.05;1.10;;;;;;;16.07;55.35;94337.06;5073511;28;20141;-53
2023/03/10 05:58:53;;;;;;;2.60;0.90;;;;;;;15.65;57.33;94352.19;5049125;28;20072;-48
2023/03/10 06:01:21;;;;;;;1.35;0.80;;;;;;;16.11;57.63;94340.06;5050679;28;20132;-47
2023/03/10 06:03:51;;;;;;;2.67;0.98;;;;;;;16.40;54.65;94327.66;5049825;28;20073;-53
2023/03/10 06:06:19;;;;;;;1.00;0.50;;;;;;;16.12;54.26;94329.19;5050370;28;20096;-50
2023/03/10 06:08:48;;;;;;;7.65;1.00;;;;;;;16.37;53.85;94336.09;5052011;28;20072;-50
2023/03/10 06:11:17;;;;;;;1.33;0.70;;;;;;;16.06;55.05;94330.09;5050462;28;20522;-54
2023/03/10 06:13:45;;;;;;;2.13;0.90;;;;;;;16.33;54.48;94333.09;5049793;28;20080;-48
2023/03/10 06:16:14;;;;;;;2.25;0.77;;;;;;;16.08;54.45;94329.88;5049573;28;20072;-48
2023/03/10 06:18:42;;;;;;;2.22;0.82;;;;;;;16.85;52.08;94321.72;5049820;28;20087;-50
2023/03/10 06:21:14;;;;;;;4.22;1.02;;;;;;;15.93;54.99;94319.69;5049626;28;20466;-48
2023/03/10 06:23:43;;;;;;;2.92;0.82;;;;;;;16.71;52.23;94304.34;5049602;28;20567;-50
2023/03/10 06:26:13;;;;;;;2.20;0.75;;;;;;;16.69;52.93;94314.41;5050123;28;20434;-53
2023/03/10 06:28:43;;;;;;;3.97;1.02;;;;;;;16.54;54.53;94313.06;5049640;28;20085;-50
2023/03/10 06:31:14;;;;;;;5.32;1.00;;;;;;;17.20;51.61;94297.59;5043760;28;20471;-51
2023/03/10 06:33:42;;;;;;;1.42;0.70;;;;;;;17.08;51.10;94297.66;5049021;28;20556;-50
2023/03/10 06:36:13;;;;;;;3.38;0.90;;;;;;;17.45;50.49;94296.47;5049827;28;20080;-51
2023/03/10 06:38:41;;;;;;;4.53;0.90;;;;;;;17.75;49.10;94286.28;5046612;28;20493;-53
2023/03/10 06:41:10;;;;;;;2.15;0.82;;;;;;;18.28;47.45;94278.84;5049747;28;20567;-53
2023/03/10 06:43:39;;;;;;;2.55;0.57;;;;;;;17.55;49.08;94281.44;5049268;28;20106;-49
2023/03/10 06:46:09;;;;;;;3.00;0.90;;;;;;;17.85;48.84;94283.00;5049309;28;20068;-51
2023/03/10 06:48:39;;;;;;;4.93;1.00;;;;;;;18.57;47.37;94282.16;5049529;28;20072;-53
2023/03/10 06:51:08;;;;;;;3.47;0.90;;;;;;;18.29;48.09;94271.63;5049440;28;20513;-49
2023/03/10 06:53:38;;;;;;;1.88;0.80;;;;;;;18.25;48.38;94266.78;5049139;28;20087;-52
2023/03/10 06:56:08;;;;;;;2.10;0.93;;;;;;;18.52;47.64;94255.41;5048558;28;20080;-54
2023/03/10 06:58:37;;;;;;;2.30;0.85;;;;;;;18.25;48.77;94258.78;5049658;28;20084;-50
2023/03/10 07:01:06;;;;;;;3.25;0.73;;;;;;;18.48;47.42;94263.09;5046437;28;20087;-52
2023/03/10 07:03:35;;;;;;;2.22;0.90;;;;;;;18.77;47.72;94252.25;5048852;28;20089;-52
2023/03/10 07:06:04;;;;;;;1.45;0.70;;;;;;;19.06;46.83;94255.50;5049174;28;20168;-50
2023/03/10 07:08:32;;;;;;;1.65;0.60;;;;;;;19.13;46.99;94249.94;5048914;28;20076;-52
2023/03/10 07:11:02;;;;;;;1.77;0.60;;;;;;;19.07;46.59;94251.78;5046281;28;20087;-49
2023/03/10 07:13:30;;;;;;;1.50;0.70;;;;;;;19.15;47.18;94242.50;5048402;28;20092;-47
2023/03/10 07:15:58;;;;;;;1.45;0.65;;;;;;;19.82;45.42;94251.91;5049032;28;20092;-51
2023/03/10 07:18:28;;;;;;;3.30;0.73;;;;;;;19.96;45.66;94258.47;5049150;28;20095;-50
2023/03/10 07:20:57;;;;;;;2.40;0.80;;;;;;;20.08;44.55;94256.38;5049031;28;20515;-54
2023/03/10 07:23:25;;;;;;;2.70;0.80;;;;;;;20.19;45.00;94246.56;5048916;28;20081;-49
2023/03/10 07:25:55;;;;;;;1.23;0.60;;;;;;;20.27;45.09;94239.94;5048791;28;20083;-49
2023/03/10 07:28:25;;;;;;;2.75;0.80;;;;;;;19.60;46.68;94254.66;5048864;28;20092;-50
2023/03/10 07:30:55;;;;;;;1.40;0.70;;;;;;;19.77;46.40;94247.34;5048661;28;20497;-47
2023/03/10 07:33:23;;;;;;;2.43;0.87;;;;;;;20.10;46.02;94246.25;5048519;28;20565;-53
2023/03/10 07:35:52;;;;;;;3.95;1.13;;;;;;;19.58;46.54;94249.59;5048273;28;20935;-51
2023/03/10 07:38:20;;;;;;;1.98;0.88;;;;;;;20.65;44.70;94230.75;5048355;28;20092;-49
2023/03/10 07:40:48;;;;;;;3.75;0.90;;;;;;;20.50;45.04;94236.84;5049610;28;20060;-50
2023/03/10 07:43:16;;;;;;;2.38;0.90;;;;;;;20.41;45.13;94237.59;5049776;28;20104;-53
2023/03/10 07:45:46;;;;;;;2.25;0.98;;;;;;;20.69;44.47;94223.00;5047538;28;20096;-52
2023/03/10 07:48:15;;;;;;;2.10;0.70;;;;;;;20.91;44.05;94223.59;5048826;28;20080;-48
2023/03/10 07:50:43;;;;;;;2.13;0.90;;;;;;;20.77;44.40;94217.13;5047946;28;20981;-52
2023/03/10 07:53:11;;;;;;;2.78;0.90;;;;;;;20.68;45.28;94219.53;5050407;28;20088;-51
2023/03/10 07:55:40;;;;;;;3.63;0.90;;;;;;;20.74;44.43;94228.38;5048040;28;20083;-53
2023/03/10 07:58:08;;;;;;;2.00;0.80;;;;;;;20.19;46.45;94227.03;5048297;28;20486;-51
2023/03/10 08:00:36;;;;;;;2.75;0.93;;;;;;;20.53;45.82;94230.97;5046447;28;20092;-51
2023/03/10 08:03:07;;;;;;;3.67;1.05;;;;;;;20.67;46.08;94225.13;5047935;28;20084;-50
2023/03/10 08:05:39;;;;;;;1.75;0.93;;;;;;;20.53;45.53;94227.47;5048030;28;20080;-49
2023/03/10 08:08:08;;;;;;;3.92;1.20;;;;;;;19.78;47.27;94226.75;5046553;28;20085;-50
2023/03/10 08:10:37;;;;;;;1.98;0.90;;;;;;;20.31;46.75;94217.72;5048238;28;20092;-53
2023/03/10 08:13:05;;;;;;;3.22;0.80;;;;;;;21.10;44.79;94197.94;5046841;28;20096;-53
2023/03/10 08:15:33;;;;;;;4.50;1.30;;;;;;;20.74;44.94;94205.06;5047742;28;20072;-51
2023/03/10 08:18:04;;;;;;;2.72;0.98;;;;;;;20.62;45.76;94202.63;5047766;28;20111;-48
2023/03/10 08:20:35;;;;;;;2.53;0.95;;;;;;;20.49;45.33;94195.03;5048190;28;20080;-49
2023/03/10 08:23:04;;;;;;;3.88;1.00;;;;;;;20.51;45.65;94194.81;5048275;28;20080;-54
2023/03/10 08:25:32;;;;;;;2.22;0.88;;;;;;;21.28;44.09;94185.09;5047818;28;20092;-51
2023/03/10 08:28:00;;;;;;;4.45;1.15;;;;;;;20.77;44.23;94185.78;5047640;28;20091;-50
2023/03/10 08:30:28;;;;;;;2.13;0.90;;;;;;;21.50;43.77;94176.78;5048231;28;20091;-46
2023/03/10 08:32:57;;;;;;;4.30;1.10;;;;;;;21.09;44.00;94182.09;5047488;28;20186;-48
2023/03/10 08:35:25;;;;;;;1.98;1.05;;;;;;;20.68;44.85;94182.03;5047562;28;20084;-52
2023/03/10 08:37:55;;;;;;;2.03;0.80;;;;;;;21.45;43.19;94179.50;5046972;28;20084;-52
2023/03/10 08:40:23;;;;;;;3.10;1.23;;;;;;;20.46;44.69;94182.19;5044084;28;20080;-50
2023/03/10 08:42:51;;;;;;;4.32;1.38;;;;;;;21.19;43.52;94176.75;5047211;28;20538;-51
2023/03/10 08:45:20;;;;;;;3.40;1.08;;;;;;;20.71;45.13;94183.34;5047783;28;20542;-51
2023/03/10 08:47:48;;;;;;;3.85;1.05;;;;;;;20.77;44.61;94183.13;5047626;28;20085;-53
2023/03/10 08:50:17;;;;;;;3.78;1.40;;;;;;;21.22;44.52;94180.78;5044351;28;20080;-49
2023/03/10 08:52:45;;;;;;;1.65;1.05;;;;;;;21.77;42.19;94181.88;5047504;28;20092;-50
2023/03/10 08:55:15;;;;;;;2.47;1.17;;;;;;;21.56;42.82;94183.78;5047736;28;20092;-48
2023/03/10 08:57:44;;;;;;;3.23;1.07;;;;;;;20.43;44.81;94184.56;5047479;28;20087;-52
2023/03/10 09:00:13;;;;;;;3.75;1.05;;;;;;;20.84;44.04;94190.91;5048116;28;20092;-53
2023/03/10 09:02:44;;;;;;;1.70;1.00;;;;;;;20.75;44.04;94190.63;5048045;28;20091;-48
2023/03/10 09:05:12;;;;;;;2.28;1.10;;;;;;;21.12;42.58;94194.97;5047147;28;20577;-48
2023/03/10 09:07:40;;;;;;;2.83;1.00;;;;;;;21.27;42.75;94186.97;5046984;28;20073;-51
2023/03/10 09:10:10;;;;;;;3.72;1.10;;;;;;;22.35;40.88;94181.50;5047362;28;20088;-55
2023/03/10 09:12:39;;;;;;;4.10;1.00;;;;;;;22.30;41.23;94186.88;5045655;28;20077;-51
2023/03/10 09:15:08;;;;;;;5.63;1.50;;;;;;;22.13;41.47;94184.50;5047653;28;20080;-47
2023/03/10 09:17:37;;;;;;;3.67;1.55;;;;;;;21.87;41.75;94186.41;5045914;28;20564;-51
2023/03/10 09:20:09;;;;;;;6.40;1.33;;;;;;;21.87;41.02;94184.53;5051400;28;20079;-48
2023/03/10 09:22:37;;;;;;;3.60;1.13;;;;;;;22.52;40.67;94177.41;5051352;28;20084;-53
2023/03/10 09:25:06;;;;;;;2.45;1.13;;;;;;;22.74;40.71;94181.59;5050953;28;20095;-50
2023/03/10 09:27:35;;;;;;;3.38;1.17;;;;;;;22.30;40.51;94182.34;5051270;28;20096;-49
2023/03/10 09:30:06;;;;;;;2.42;0.88;;;;;;;21.82;41.10;94189.94;5050635;28;20505;-51
2023/03/10 09:32:34;;;;;;;5.30;2.25;;;;;;;23.04;39.80;94182.53;5051089;28;20080;-55
2023/03/10 09:35:02;;;;;;;33.60;14.27;;;;;;;22.84;39.98;94178.06;5050293;28;20690;-52
2023/03/10 09:37:31;;;;;;;22.98;10.52;;;;;;;23.56;38.70;94181.09;5051111;28;20080;-57
2023/03/10 09:39:59;;;;;;;6.95;4.25;;;;;;;22.91;39.53;94182.03;5050974;28;20076;-47
2023/03/10 09:42:34;;;;;;;3.17;1.20;;;;;;;23.27;38.38;94189.91;5051261;28;20084;-55
2023/03/10 09:45:25;;;;;;;1.98;0.95;;;;;;;22.87;38.92;94191.75;5045301;28;20081;-51
2023/03/10 09:48:03;;;;;;;4.38;1.02;;;;;;;21.81;40.69;94201.72;5050962;28;20073;-51
2023/03/10 09:50:34;;;;;;;2.60;1.13;;;;;;;22.19;40.43;94202.22;5049930;28;20088;-51
2023/03/10 09:53:07;;;;;;;2.45;0.88;;;;;;;21.65;40.61;94202.81;5050633;28;20077;-46
2023/03/10 09:55:39;;;;;;;1.67;0.70;;;;;;;20.86;39.77;94208.31;5050769;28;20087;-52
2023/03/10 09:58:32;;;;;;;4.38;0.85;;;;;;;20.35;39.07;94212.66;5046086;28;20085;-55
2023/03/10 10:01:03;;;;;;;1.60;0.60;;;;;;;20.33;40.09;94204.06;5049824;28;20576;-52
2023/03/10 10:03:34;;;;;;;0.75;0.50;;;;;;;19.63;41.47;94228.25;5050246;28;20080;-47
2023/03/10 10:06:22;;;;;;;2.40;0.90;;;;;;;19.98;41.74;94232.25;5049211;28;20655;-51
2023/03/10 10:08:54;;;;;;;2.72;0.90;;;;;;;19.44;43.23;94235.00;5050131;28;20095;-50
2023/03/10 10:11:33;;;;;;;1.63;0.75;;;;;;;19.60;43.62;94246.66;5050442;28;20084;-54
2023/03/10 10:14:14;;;;;;;1.33;0.70;;;;;;;18.98;46.19;94251.41;5050124;28;20091;-48
2023/03/10 10:17:02;;;;;;;0.40;0.38;;;;;;;18.37;46.41;94245.31;5051901;28;20076;-48
2023/03/10 10:19:31;;;;;;;3.17;0.60;;;;;;;17.85;52.30;94266.22;5046404;28;20080;-49
2023/03/10 10:22:08;;;;;;;0.55;0.30;;;;;;;17.09;62.18;94283.31;5050135;28;20476;-50
2023/03/10 10:24:37;;;;;;;0.52;0.32;;;;;;;17.52;72.71;94289.13;5050025;28;20080;-50
2023/03/10 10:27:05;;;;;;;0.30;0.30;;;;;;;16.27;84.32;94306.63;5050112;28;20073;-50
2023/03/10 10:29:35;;;;;;;2.15;0.30;;;;;;;16.40;89.44;94300.25;5049852;28;20087;-49
2023/03/10 10:32:08;;;;;;;0.57;0.50;;;;;;;16.11;90.15;94303.66;5049683;28;20068;-48
2023/03/10 10:34:38;;;;;;;0.20;0.20;;;;;;;16.30;82.93;94322.94;5047443;28;20471;-53
2023/03/10 10:37:26;;;;;;;0.20;0.20;;;;;;;16.00;78.57;94317.75;5047234;28;20088;-51
2023/03/10 10:39:56;;;;;;;0.30;0.30;;;;;;;16.40;74.38;94326.88;5049992;28;20083;-50
2023/03/10 10:42:26;;;;;;;0.52;0.22;;;;;;;16.81;74.84;94320.56;5044364;28;20068;-55
2023/03/10 10:44:56;;;;;;;0.82;0.30;;;;;;;16.63;75.13;94321.50;5049039;28;20076;-53
2023/03/10 10:47:29;;;;;;;0.20;0.20;;;;;;;15.84;79.04;94321.09;5044751;28;20092;-49
2023/03/10 10:50:10;;;;;;;0.10;0.10;;;;;;;15.61;92.83;94335.09;5049132;28;20561;-51
2023/03/10 10:52:39;;;;;;;0.20;0.20;;;;;;;15.73;87.80;94337.84;5049620;28;20080;-49
2023/03/10 10:55:22;;;;;;;0.17;0.17;;;;;;;16.12;87.78;94323.06;5046880;28;20083;-51
2023/03/10 10:57:54;;;;;;;0.52;0.20;;;;;;;15.62;97.82;94310.97;5047386;28;20548;-50
2023/03/10 11:00:25;;;;;;;0.20;0.20;;;;;;;15.23;100.00;94315.03;5048750;28;20084;-50
2023/03/10 11:02:55;;;;;;;0.55;0.30;;;;;;;15.51;93.10;94309.09;5054265;28;20084;-50
2023/03/10 11:05:31;;;;;;;1.20;0.30;;;;;;;15.56;90.93;94311.09;5049375;28;20084;-55
2023/03/10 11:08:16;;;;;;;0.20;0.20;;;;;;;16.03;85.55;94303.16;5048665;28;20087;-49
2023/03/10 11:10:48;;;;;;;1.02;0.30;;;;;;;16.05;79.73;94271.84;5049123;28;20139;-51
2023/03/10 11:13:19;;;;;;;0.17;0.17;;;;;;;16.24;73.67;94264.53;5049643;28;20067;-52
2023/03/10 11:15:51;;;;;;;0.35;0.20;;;;;;;16.59;71.87;94256.50;5048173;28;20105;-53
2023/03/10 11:18:24;;;;;;;0.13;0.13;;;;;;;16.78;66.50;94255.31;5048458;28;20061;-54
2023/03/10 11:20:57;;;;;;;0.28;0.25;;;;;;;16.55;62.96;94252.69;5046407;28;20060;-49
2023/03/10 11:23:29;;;;;;;0.30;0.30;;;;;;;17.17;61.46;94252.84;5075672;28;20072;-51
2023/03/10 11:26:00;;;;;;;0.50;0.30;;;;;;;17.24;58.94;94240.16;5047852;28;20072;-52
2023/03/10 11:28:38;;;;;;;1.35;0.30;;;;;;;16.72;59.11;94239.44;5048521;28;20072;-51
2023/03/10 11:31:17;;;;;;;0.45;0.30;;;;;;;16.30;62.09;94243.13;5045192;28;20082;-50
2023/03/10 11:33:50;;;;;;;1.30;0.30;;;;;;;16.58;59.88;94236.25;5048788;28;20438;-47
2023/03/10 11:36:31;;;;;;;0.70;0.20;;;;;;;16.56;61.34;94230.38;5047633;28;20080;-47
2023/03/10 11:39:06;;;;;;;1.27;0.52;;;;;;;16.27;64.58;94218.88;5048615;28;20065;-49
2023/03/10 11:41:37;;;;;;;1.55;0.43;;;;;;;16.89;65.71;94218.22;5044240;28;20064;-52
2023/03/10 11:44:15;;;;;;;0.88;0.40;;;;;;;17.10;58.89;94204.22;5047083;28;20072;-49
2023/03/10 11:46:50;;;;;;;0.93;0.30;;;;;;;17.08;58.50;94196.47;5048590;28;20080;-49
2023/03/10 11:49:26;;;;;;;2.88;0.30;;;;;;;17.64;62.75;94190.44;5054584;28;20439;-55